Time;durP1;ratioP1;P1;durP2;ratioP2;P2;SDS_P1;SDS_P2;PMS_P1;PMS_P2;Temp;Humidity;BMP_temperature;BMP_pressure;BME280_temperature;BME280_humidity;BME280_pressure;Samples;Min_cycle;Max_cycle;Signal;HPM_P1;HPM_P2
2021/01/12 06:39:03;;;;;;;;;;;;;;;8.78;52.14;99383.13;5131792;27;20090;-78
2021/01/12 06:41:35;;;;;;;;;;;;;;;8.74;51.81;99379.75;5118357;27;20469;-78
2021/01/12 06:44:07;;;;;;;;;;;;;;;8.74;51.99;99378.91;5114343;27;19942;-77
2021/01/12 06:46:34;;;;;;;;;;;;;;;8.71;52.53;99389.59;5118569;27;19931;-79
2021/01/12 06:49:01;;;;;;;;;;;;;;;8.67;51.94;99391.50;5134668;27;19927;-78
2021/01/12 06:51:35;;;;;;;;;;;;;;;8.64;52.29;99387.19;5123512;27;20022;-81
2021/01/12 06:54:03;;;;;;;;;;;;;;;8.66;53.00;99391.56;5127011;27;20043;-77
2021/01/12 06:56:32;;;;;;;;;;;;;;;8.60;53.00;99390.88;5117544;27;19927;-76
2021/01/12 06:59:20;;;;;;;;;;;;;;;8.66;53.58;99394.19;5131889;27;19927;-79
2021/01/12 07:02:00;;;;;;;;;;;;;;;8.63;55.32;99393.38;5131700;27;19928;-81
2021/01/12 07:04:28;;;;;;;;;;;;;;;8.63;54.89;99400.44;5116804;27;19928;-79
2021/01/12 07:06:56;;;;;;;;;;;;;;;8.60;55.63;99401.44;5129207;27;20071;-79
2021/01/12 07:09:24;;;;;;;;;;;;;;;8.56;56.11;99391.06;5135338;27;19958;-81
2021/01/12 07:11:51;;;;;;;;;;;;;;;8.54;55.67;99406.94;5138046;27;20023;-79
2021/01/12 07:14:24;;;;;;;;;;;;;;;8.54;56.05;99406.94;5132171;27;20229;-78
2021/01/12 07:16:51;;;;;;;;;;;;;;;8.51;56.19;99411.47;5128206;27;19928;-77
2021/01/12 07:19:19;;;;;;;;;;;;;;;8.46;56.35;99414.31;5120078;27;19962;-77
2021/01/12 07:21:46;;;;;;;;;;;;;;;8.42;56.01;99415.31;5138616;27;19934;-77
2021/01/12 07:24:16;;;;;;;;;;;;;;;8.36;56.24;99412.91;5132622;27;19943;-77
2021/01/12 07:26:45;;;;;;;;;;;;;;;8.31;56.52;99419.25;5121941;27;19934;-77
2021/01/12 07:29:13;;;;;;;;;;;;;;;8.32;55.61;99420.06;5120377;27;19924;-78
2021/01/12 07:31:39;;;;;;;;;;;;;;;8.29;56.24;99422.84;5116772;27;19927;-78
2021/01/12 07:34:14;;;;;;;;;;;;;;;8.27;55.50;99424.66;5115679;27;20348;-78
2021/01/12 07:36:41;;;;;;;;;;;;;;;8.25;55.89;99430.00;5120101;27;20413;-78
2021/01/12 07:39:09;;;;;;;;;;;;;;;8.33;55.31;99427.06;5120268;27;20470;-78
2021/01/12 07:41:36;;;;;;;;;;;;;;;8.54;53.30;99433.31;5121746;27;20019;-78
2021/01/12 07:44:06;;;;;;;;;;;;;;;8.68;52.16;99435.41;5103584;27;19976;-78
2021/01/12 07:46:33;;;;;;;;;;;;;;;8.78;50.88;99443.78;5119762;27;20009;-78
2021/01/12 07:49:00;;;;;;;;;;;;;;;8.85;49.79;99441.75;5116045;27;19931;-78
2021/01/12 07:51:27;;;;;;;;;;;;;;;8.92;48.87;99446.69;5109084;27;19931;-77
2021/01/12 07:53:54;;;;;;;;;;;;;;;9.00;47.98;99446.38;5106360;27;19932;-76
2021/01/12 07:56:22;;;;;;;;;;;;;;;9.05;47.71;99449.69;5109591;27;19931;-78
2021/01/12 07:58:49;;;;;;;;;;;;;;;9.08;47.05;99444.28;5112779;27;19932;-77
2021/01/12 08:01:24;;;;;;;;;;;;;;;9.16;46.47;99451.03;5110346;27;20401;-77
2021/01/12 08:03:52;;;;;;;;;;;;;;;9.29;45.67;99452.22;5109921;27;19927;-77
2021/01/12 08:06:18;;;;;;;;;;;;;;;9.16;46.03;99451.88;5096220;27;20178;-77
2021/01/12 08:08:55;;;;;;;;;;;;;;;9.07;47.23;99461.03;5116016;27;20329;-77
2021/01/12 08:11:22;;;;;;;;;;;;;;;9.04;46.77;99455.03;5111492;27;19931;-77
2021/01/12 08:13:49;;;;;;;;;;;;;;;9.01;47.92;99453.38;5107093;27;19931;-77
2021/01/12 08:16:17;;;;;;;;;;;;;;;9.00;48.39;99454.31;5109250;27;19927;-77
2021/01/12 08:18:45;;;;;;;;;;;;;;;9.03;49.10;99453.31;5111598;27;19935;-77
2021/01/12 08:21:11;;;;;;;;;;;;;;;9.03;48.53;99461.22;5112306;27;19928;-77
2021/01/12 08:23:38;;;;;;;;;;;;;;;9.05;49.16;99462.00;5112014;27;19935;-77
2021/01/12 08:26:09;;;;;;;;;;;;;;;9.06;49.56;99461.97;5111924;27;19941;-77
2021/01/12 08:28:36;;;;;;;;;;;;;;;9.07;49.04;99466.31;5107369;27;19927;-77
2021/01/12 08:31:02;;;;;;;;;;;;;;;9.10;49.57;99466.19;5106400;27;20094;-77
2021/01/12 08:33:32;;;;;;;;;;;;;;;9.19;49.17;99472.00;5111708;27;20078;-77
2021/01/12 08:36:03;;;;;;;;;;;;;;;9.41;49.41;99471.94;5111538;27;19934;-77
2021/01/12 08:38:31;;;;;;;;;;;;;;;9.59;48.57;99476.44;5094275;27;19937;-76
2021/01/12 08:40:58;;;;;;;;;;;;;;;9.80;48.71;99474.63;5093937;27;20060;-77
2021/01/12 08:43:28;;;;;;;;;;;;;;;10.00;48.28;99474.66;5102249;27;19959;-77
2021/01/12 08:45:58;;;;;;;;;;;;;;;10.23;47.37;99469.19;5094460;27;19955;-77
2021/01/12 08:48:25;;;;;;;;;;;;;;;10.45;47.10;99470.84;5095668;27;19971;-77
2021/01/12 08:50:52;;;;;;;;;;;;;;;10.60;46.84;99470.13;5087106;27;19936;-77
2021/01/12 08:53:27;;;;;;;;;;;;;;;10.76;46.84;99477.31;5094309;27;19931;-77
2021/01/12 08:56:04;;;;;;;;;;;;;;;10.88;46.68;99479.34;5089717;27;19931;-77
2021/01/12 08:58:30;;;;;;;;;;;;;;;11.00;46.47;99479.69;5088914;27;20000;-77
2021/01/12 09:00:59;;;;;;;;;;;;;;;11.15;46.45;99483.38;5093704;27;20328;-77
2021/01/12 09:03:27;;;;;;;;;;;;;;;11.25;46.37;99480.19;5092401;27;19927;-77
2021/01/12 09:05:54;;;;;;;;;;;;;;;11.27;46.37;99478.31;5094965;27;20035;-78
2021/01/12 09:08:23;;;;;;;;;;;;;;;11.39;46.40;99476.84;5109144;27;19932;-77
2021/01/12 09:10:50;;;;;;;;;;;;;;;11.56;46.02;99481.28;5089613;27;20144;-77
2021/01/12 09:13:25;;;;;;;;;;;;;;;11.74;45.82;99479.47;5098828;27;20408;-77
2021/01/12 09:15:52;;;;;;;;;;;;;;;11.91;45.53;99483.00;5094517;27;20023;-77
2021/01/12 09:18:20;;;;;;;;;;;;;;;12.06;45.42;99474.28;5096308;27;19974;-77
2021/01/12 09:20:53;;;;;;;;;;;;;;;12.24;44.91;99479.50;5093122;27;19931;-78
2021/01/12 09:23:20;;;;;;;;;;;;;;;12.41;44.69;99478.56;5096445;27;19928;-77
2021/01/12 09:25:50;;;;;;;;;;;;;;;12.49;44.63;99476.38;5092327;27;20245;-78
2021/01/12 09:28:19;;;;;;;;;;;;;;;12.61;44.44;99475.69;5093732;27;19937;-78
2021/01/12 09:30:46;;;;;;;;;;;;;;;12.90;43.73;99474.97;5091692;27;19996;-77
2021/01/12 09:33:14;;;;;;;;;;;;;;;13.05;43.50;99470.56;5109574;27;19959;-78
2021/01/12 09:35:41;;;;;;;;;;;;;;;14.33;40.41;99459.34;5093710;27;19996;-78
2021/01/12 09:38:10;;;;;;;;;;;;;;;15.27;38.31;99447.94;5092427;27;19942;-78
2021/01/12 09:40:37;;;;;;;;;;;;;;;15.37;38.24;99446.34;5101620;27;19973;-78
2021/01/12 09:43:05;;;;;;;;;;;;;;;16.80;35.35;99436.38;5101778;27;19953;-78
2021/01/12 09:45:33;;;;;;;;;;;;;;;16.60;35.39;99450.22;5103235;27;19954;-78
2021/01/12 09:48:01;;;;;;;;;;;;;;;16.30;36.42;99450.63;5090097;27;20088;-78
2021/01/12 09:50:28;;;;;;;;;;;;;;;15.36;38.61;99462.47;5091317;27;19938;-78
2021/01/12 09:52:55;;;;;;;;;;;;;;;14.66;40.27;99472.34;5090501;27;19946;-78
2021/01/12 09:55:22;;;;;;;;;;;;;;;14.47;40.86;99464.66;5105934;27;19939;-78
2021/01/12 09:57:50;;;;;;;;;;;;;;;14.60;40.57;99465.59;5102407;27;20011;-78
2021/01/12 10:00:18;;;;;;;;;;;;;;;14.87;40.02;99464.78;5109568;27;19953;-78
2021/01/12 10:02:45;;;;;;;;;;;;;;;14.19;41.45;99479.72;5109405;27;19938;-77
2021/01/12 10:05:12;;;;;;;;;;;;;;;13.91;42.80;99476.09;5097005;27;20720;-77
2021/01/12 10:07:39;;;;;;;;;;;;;;;14.43;41.51;99460.47;5103357;27;19989;-78
2021/01/12 10:10:07;;;;;;;;;;;;;;;14.45;41.28;99466.56;5091540;28;20708;-78
2021/01/12 10:12:34;;;;;;;;;;;;;;;14.02;42.39;99475.44;5090961;27;19953;-78
2021/01/12 10:15:01;;;;;;;;;;;;;;;13.76;43.00;99469.06;5089453;27;19923;-78
2021/01/12 10:17:31;;;;;;;;;;;;;;;13.78;43.19;99472.50;5088984;27;19992;-78
2021/01/12 10:19:58;;;;;;;;;;;;;;;14.17;42.47;99468.31;5088540;27;19931;-78
2021/01/12 10:22:26;;;;;;;;;;;;;;;15.41;39.48;99449.69;5088824;27;20031;-78
2021/01/12 10:24:57;;;;;;;;;;;;;;;15.40;39.48;99456.81;5090351;28;19939;-78
2021/01/12 10:27:24;;;;;;;;;;;;;;;14.98;40.43;99471.19;5093422;28;20462;-78
2021/01/12 10:29:51;;;;;;;;;;;;;;;14.46;41.44;99470.94;5107570;27;19932;-78
2021/01/12 10:32:19;;;;;;;;;;;;;;;15.07;40.14;99465.25;5092258;28;20006;-78
2021/01/12 10:34:47;;;;;;;;;;;;;;;14.68;41.05;99470.47;5090810;27;19932;-78
2021/01/12 10:37:14;;;;;;;;;;;;;;;14.94;40.38;99471.41;5082516;27;19932;-78
2021/01/12 10:39:41;;;;;;;;;;;;;;;16.35;37.46;99464.50;5091276;27;19980;-78
2021/01/12 10:42:09;;;;;;;;;;;;;;;15.92;38.28;99468.38;5109031;27;20016;-78
2021/01/12 10:44:36;;;;;;;;;;;;;;;16.03;38.09;99474.78;5093340;27;19928;-78
2021/01/12 10:47:03;;;;;;;;;;;;;;;15.80;38.16;99468.34;5092053;28;20484;-78
2021/01/12 10:49:30;;;;;;;;;;;;;;;15.03;40.04;99477.91;5097920;27;19932;-78
2021/01/12 10:51:59;;;;;;;;;;;;;;;13.99;42.81;99482.78;5090518;27;19931;-78
2021/01/12 10:54:27;;;;;;;;;;;;;;;13.63;43.80;99482.22;5085012;28;19947;-78
2021/01/12 10:56:54;;;;;;;;;;;;;;;13.61;43.82;99473.53;5090072;28;19927;-78
2021/01/12 10:59:21;;;;;;;;;;;;;;;14.40;41.96;99469.50;5096769;27;20017;-78
2021/01/12 11:01:52;;;;;;;;;;;;;;;14.48;42.26;99466.38;5105052;27;19942;-78
2021/01/12 11:04:20;;;;;;;;;;;;;;;13.63;43.84;99474.25;5110515;27;19955;-76
2021/01/12 11:06:47;;;;;;;;;;;;;;;13.74;44.01;99470.97;5114406;27;20402;-75
2021/01/12 11:09:15;;;;;;;;;;;;;;;14.16;43.00;99463.13;5105991;27;19939;-76
2021/01/12 11:11:42;;;;;;;;;;;;;;;14.53;41.87;99460.75;5094604;27;19932;-76
2021/01/12 11:14:09;;;;;;;;;;;;;;;14.78;41.28;99465.38;5114450;27;20593;-76
2021/01/12 11:16:37;;;;;;;;;;;;;;;14.89;41.01;99464.66;5110733;27;19938;-75
2021/01/12 11:19:04;;;;;;;;;;;;;;;15.10;40.48;99459.72;5108784;27;19938;-76
2021/01/12 11:21:31;;;;;;;;;;;;;;;14.61;41.58;99461.13;5095023;27;19943;-76
2021/01/12 11:23:59;;;;;;;;;;;;;;;14.98;40.97;99457.88;5096424;27;19996;-76
2021/01/12 11:26:30;;;;;;;;;;;;;;;15.17;40.37;99447.72;5094096;27;19927;-76
2021/01/12 11:28:57;;;;;;;;;;;;;;;14.62;41.85;99446.84;5096270;27;19931;-76
2021/01/12 11:31:32;;;;;;;;;;;;;;;14.00;43.31;99455.22;5096675;27;20000;-76
2021/01/12 11:34:00;;;;;;;;;;;;;;;14.11;43.15;99458.91;5082216;27;19967;-75
2021/01/12 11:36:31;;;;;;;;;;;;;;;14.01;44.01;99452.47;5111914;27;20806;-75
2021/01/12 11:38:57;;;;;;;;;;;;;;;14.10;43.81;99453.69;5112462;27;20417;-77
2021/01/12 11:41:26;;;;;;;;;;;;;;;14.15;43.47;99448.94;5087327;27;19986;-75
2021/01/12 11:43:54;;;;;;;;;;;;;;;14.59;42.38;99447.91;5114805;27;19932;-75
2021/01/12 11:46:26;;;;;;;;;;;;;;;15.67;40.00;99452.38;5104389;27;19928;-75
2021/01/12 11:48:54;;;;;;;;;;;;;;;16.41;38.33;99447.19;5103634;27;19975;-75
2021/01/12 11:51:33;;;;;;;;;;;;;;;16.16;38.45;99442.75;5100384;27;20106;-75
2021/01/12 11:54:03;;;;;;;;;;;;;;;15.81;39.57;99436.31;5095263;27;20387;-75
2021/01/12 11:56:30;;;;;;;;;;;;;;;16.25;38.68;99440.28;5106089;27;19927;-75
2021/01/12 11:58:58;;;;;;;;;;;;;;;15.23;40.87;99434.00;5107239;27;19934;-75
2021/01/12 12:01:24;;;;;;;;;;;;;;;15.70;40.03;99428.16;5107712;27;19984;-75
2021/01/12 12:03:51;;;;;;;;;;;;;;;15.53;40.42;99440.81;5109857;27;20286;-75
2021/01/12 12:06:18;;;;;;;;;;;;;;;15.21;41.38;99437.72;5110782;27;20478;-76
2021/01/12 12:08:45;;;;;;;;;;;;;;;15.13;41.61;99437.34;5114169;27;19964;-75
2021/01/12 12:11:12;;;;;;;;;;;;;;;15.12;41.81;99435.69;5108196;27;19931;-76
2021/01/12 12:13:42;;;;;;;;;;;;;;;15.67;40.69;99442.56;5107975;27;19933;-75
2021/01/12 12:16:14;;;;;;;;;;;;;;;15.67;40.80;99437.22;5089278;27;19986;-75
2021/01/12 12:18:41;;;;;;;;;;;;;;;15.48;41.37;99439.44;5096358;27;20045;-75
2021/01/12 12:21:12;;;;;;;;;;;;;;;15.58;41.31;99448.53;5114005;27;20555;-75
2021/01/12 12:23:39;;;;;;;;;;;;;;;15.61;41.40;99440.31;5111513;27;19927;-75
2021/01/12 12:26:07;;;;;;;;;;;;;;;15.66;41.57;99446.16;5108923;27;20051;-76
2021/01/12 12:28:34;;;;;;;;;;;;;;;15.81;41.13;99451.44;5105122;27;19928;-76
2021/01/12 12:31:01;;;;;;;;;;;;;;;16.05;40.85;99441.69;5090760;27;19931;-75
2021/01/12 12:33:30;;;;;;;;;;;;;;;16.45;40.12;99448.66;5111182;27;19936;-75
2021/01/12 12:35:57;;;;;;;;;;;;;;;16.72;39.33;99453.81;5108530;27;20391;-75
2021/01/12 12:38:24;;;;;;;;;;;;;;;16.99;39.03;99452.72;5110431;27;21506;-75
2021/01/12 12:40:51;;;;;;;;;;;;;;;17.33;38.21;99452.84;5090741;27;19931;-75
2021/01/12 12:43:34;;;;;;;;;;;;;;;17.41;38.41;99441.59;5100373;27;20125;-75
2021/01/12 12:46:12;;;;;;;;;;;;;;;17.62;37.99;99452.44;5105934;27;19942;-76
2021/01/12 12:48:40;;;;;;;;;;;;;;;16.81;39.88;99440.72;5103754;27;19942;-75
2021/01/12 12:51:11;;;;;;;;;;;;;;;16.27;41.15;99441.03;5102494;27;20504;-76
2021/01/12 12:53:38;;;;;;;;;;;;;;;15.80;42.25;99426.56;5101458;27;19931;-76
2021/01/12 12:56:05;;;;;;;;;;;;;;;15.39;43.62;99427.59;5097518;27;20022;-75
2021/01/12 12:58:33;;;;;;;;;;;;;;;15.13;44.19;99432.03;5099879;27;20328;-76
2021/01/12 13:01:00;;;;;;;;;;;;;;;14.91;44.65;99431.66;5101634;27;20054;-76
2021/01/12 13:03:28;;;;;;;;;;;;;;;14.73;44.86;99436.38;5103192;27;19932;-75
2021/01/12 13:05:56;;;;;;;;;;;;;;;14.45;45.78;99429.31;5104507;27;19986;-76
2021/01/12 13:08:24;;;;;;;;;;;;;;;14.24;46.10;99428.91;5101226;27;19979;-76
2021/01/12 13:10:50;;;;;;;;;;;;;;;14.09;46.55;99430.69;5096843;27;20030;-75
2021/01/12 13:13:18;;;;;;;;;;;;;;;13.92;46.63;99422.00;5104829;27;19931;-75
2021/01/12 13:15:45;;;;;;;;;;;;;;;13.82;46.93;99422.66;5110047;27;19939;-75
2021/01/12 13:18:13;;;;;;;;;;;;;;;13.72;47.03;99425.91;5091604;27;19932;-76
2021/01/12 13:20:41;;;;;;;;;;;;;;;13.78;46.88;99420.19;5093271;27;20302;-75
2021/01/12 13:23:09;;;;;;;;;;;;;;;13.78;46.90;99427.31;5090124;27;20041;-75
2021/01/12 13:25:36;;;;;;;;;;;;;;;13.63;47.38;99425.59;5105976;27;19946;-75
2021/01/12 13:28:03;;;;;;;;;;;;;;;13.38;47.94;99427.06;5114115;27;19974;-76
2021/01/12 13:30:30;;;;;;;;;;;;;;;13.28;47.90;99429.41;5112098;27;20106;-75
2021/01/12 13:32:57;;;;;;;;;;;;;;;13.24;48.10;99434.03;5110251;27;19934;-75
2021/01/12 13:35:24;;;;;;;;;;;;;;;13.20;47.88;99431.69;5090704;27;20638;-75
2021/01/12 13:37:51;;;;;;;;;;;;;;;13.15;48.07;99428.44;5105399;27;20420;-75
2021/01/12 13:40:19;;;;;;;;;;;;;;;13.08;48.13;99427.91;5107211;27;19959;-75
2021/01/12 13:42:47;;;;;;;;;;;;;;;13.02;48.30;99418.53;5110788;27;20609;-75
2021/01/12 13:45:14;;;;;;;;;;;;;;;12.91;48.44;99427.13;5116700;27;19950;-75
2021/01/12 13:47:41;;;;;;;;;;;;;;;12.85;48.35;99426.63;5112488;27;19928;-75
2021/01/12 13:50:09;;;;;;;;;;;;;;;12.77;48.77;99430.56;5107508;27;19935;-75
2021/01/12 13:52:36;;;;;;;;;;;;;;;12.73;48.74;99430.84;5100500;27;20484;-75
2021/01/12 13:55:04;;;;;;;;;;;;;;;12.77;48.66;99427.06;5085089;27;19947;-75
2021/01/12 13:57:33;;;;;;;;;;;;;;;12.72;48.79;99426.47;5109213;27;19939;-75
2021/01/12 14:00:01;;;;;;;;;;;;;;;12.70;48.83;99438.94;5108531;27;19937;-75
2021/01/12 14:02:30;;;;;;;;;;;;;;;12.59;48.98;99429.84;5110706;27;20414;-75
2021/01/12 14:04:57;;;;;;;;;;;;;;;12.45;49.63;99437.72;5104819;27;19928;-75
2021/01/12 14:07:24;;;;;;;;;;;;;;;12.42;49.70;99432.56;5101948;27;19935;-75
2021/01/12 14:09:52;;;;;;;;;;;;;;;12.33;49.76;99433.06;5117108;27;20093;-75
2021/01/12 14:12:20;;;;;;;;;;;;;;;12.30;49.96;99444.69;5111402;27;20674;-75
2021/01/12 14:14:48;;;;;;;;;;;;;;;12.35;48.77;99439.16;5114533;27;19988;-75
2021/01/12 14:17:15;;;;;;;;;;;;;;;12.36;47.78;99438.22;5106804;27;19938;-75
2021/01/12 14:19:43;;;;;;;;;;;;;;;12.33;46.84;99428.66;5102821;27;20508;-75
2021/01/12 14:22:11;;;;;;;;;;;;;;;12.33;45.78;99433.94;5101152;27;19992;-75
2021/01/12 14:24:38;;;;;;;;;;;;;;;12.33;45.27;99435.72;5105462;27;19938;-76
2021/01/12 14:27:10;;;;;;;;;;;;;;;12.33;44.56;99441.03;5106964;27;19943;-75
2021/01/12 14:29:37;;;;;;;;;;;;;;;12.27;44.18;99440.44;5108108;27;20272;-75
2021/01/12 14:32:06;;;;;;;;;;;;;;;12.23;44.03;99444.19;5102001;27;19941;-75
2021/01/12 14:34:33;;;;;;;;;;;;;;;12.21;43.55;99453.16;5105219;27;19946;-74
2021/01/12 14:37:01;;;;;;;;;;;;;;;12.01;44.15;99456.91;5107196;27;19931;-75
2021/01/12 14:39:28;;;;;;;;;;;;;;;11.83;44.67;99453.41;5112697;27;19931;-74
2021/01/12 14:41:56;;;;;;;;;;;;;;;11.70;45.53;99456.72;5110503;27;19927;-74
2021/01/12 14:44:24;;;;;;;;;;;;;;;11.66;46.02;99449.88;5112398;27;19928;-75
2021/01/12 14:46:51;;;;;;;;;;;;;;;11.51;46.69;99450.69;5113553;27;21768;-75
2021/01/12 14:49:19;;;;;;;;;;;;;;;11.46;46.90;99457.06;5106112;27;20022;-75
2021/01/12 14:51:47;;;;;;;;;;;;;;;11.39;47.07;99447.72;5107943;27;19931;-75
2021/01/12 14:54:14;;;;;;;;;;;;;;;11.30;47.43;99453.47;5110657;27;19942;-75
2021/01/12 14:56:40;;;;;;;;;;;;;;;11.23;47.94;99455.59;5110406;27;19931;-75
2021/01/12 14:59:08;;;;;;;;;;;;;;;11.18;48.27;99454.97;5111444;27;20015;-75
2021/01/12 15:01:36;;;;;;;;;;;;;;;11.15;48.38;99456.91;5110044;27;19958;-75
2021/01/12 15:04:03;;;;;;;;;;;;;;;11.11;48.65;99453.56;5104855;27;19951;-75
2021/01/12 15:06:31;;;;;;;;;;;;;;;11.04;48.76;99455.63;5090036;27;20592;-75
2021/01/12 15:08:58;;;;;;;;;;;;;;;10.99;49.16;99455.00;5111388;27;19992;-75
2021/01/12 15:11:24;;;;;;;;;;;;;;;10.94;49.09;99454.41;5111325;27;19931;-75
2021/01/12 15:13:51;;;;;;;;;;;;;;;10.93;49.35;99453.53;5111384;27;19931;-75
2021/01/12 15:16:18;;;;;;;;;;;;;;;10.86;49.56;99461.84;5107943;27;21042;-75
2021/01/12 15:18:45;;;;;;;;;;;;;;;10.81;49.77;99472.66;5104918;27;19981;-75
2021/01/12 15:21:12;;;;;;;;;;;;;;;10.75;49.93;99465.88;5108500;27;19957;-75
2021/01/12 15:23:39;;;;;;;;;;;;;;;10.73;49.90;99466.88;5111763;27;20383;-75
2021/01/12 15:26:06;;;;;;;;;;;;;;;10.67;50.31;99470.69;5111703;27;19927;-75
2021/01/12 15:28:33;;;;;;;;;;;;;;;10.67;50.44;99475.13;5112242;27;20063;-75
2021/01/12 15:31:00;;;;;;;;;;;;;;;10.62;50.43;99478.84;5111248;27;19964;-75
2021/01/12 15:33:27;;;;;;;;;;;;;;;10.55;50.77;99476.56;5087793;27;19939;-75
2021/01/12 15:35:54;;;;;;;;;;;;;;;10.52;50.63;99481.97;5090919;27;19927;-75
2021/01/12 15:38:21;;;;;;;;;;;;;;;10.49;51.12;99484.78;5112850;27;19935;-75
2021/01/12 15:40:49;;;;;;;;;;;;;;;10.46;51.04;99486.63;5106156;27;20072;-75
2021/01/12 15:43:17;;;;;;;;;;;;;;;10.42;51.40;99489.50;5112507;27;19946;-75
2021/01/12 15:45:44;;;;;;;;;;;;;;;10.39;51.36;99498.44;5106334;27;21220;-74
2021/01/12 15:48:13;;;;;;;;;;;;;;;10.36;51.53;99497.72;5103763;27;20420;-74
2021/01/12 15:50:40;;;;;;;;;;;;;;;10.32;51.34;99501.41;5110398;27;19951;-75
2021/01/12 15:53:09;;;;;;;;;;;;;;;10.26;51.37;99499.91;5111162;27;19939;-74
2021/01/12 15:55:36;;;;;;;;;;;;;;;10.22;51.85;99501.81;5110375;27;19931;-74
2021/01/12 15:58:04;;;;;;;;;;;;;;;10.19;51.43;99509.91;5109032;27;20054;-75
2021/01/12 16:00:33;;;;;;;;;;;;;;;10.16;51.85;99495.97;5090891;27;19950;-75
2021/01/12 16:03:00;;;;;;;;;;;;;;;10.15;51.44;99508.31;5086639;27;19932;-74
2021/01/12 16:05:28;;;;;;;;;;;;;;;10.11;51.74;99496.16;5096243;27;19959;-75
2021/01/12 16:07:57;;;;;;;;;;;;;;;10.05;52.17;99502.59;5094663;27;19931;-74
2021/01/12 16:10:25;;;;;;;;;;;;;;;9.99;52.35;99504.66;5106932;27;20337;-75
2021/01/12 16:12:54;;;;;;;;;;;;;;;9.95;52.47;99503.94;5083776;27;20018;-74
2021/01/12 16:15:25;;;;;;;;;;;;;;;9.90;52.12;99500.63;5078921;27;22296;-75
2021/01/12 16:17:59;;;;;;;;;;;;;;;9.87;52.17;99504.25;5075674;27;19938;-75
2021/01/12 16:20:29;;;;;;;;;;;;;;;9.85;52.30;99508.78;5083405;27;19941;-76
2021/01/12 16:22:58;;;;;;;;;;;;;;;9.83;52.52;99507.97;5081159;27;22463;-75
2021/01/12 16:25:26;;;;;;;;;;;;;;;9.78;52.44;99515.22;5079198;27;20344;-75
2021/01/12 16:27:54;;;;;;;;;;;;;;;9.75;52.12;99513.59;5088876;27;19931;-75
2021/01/12 16:30:23;;;;;;;;;;;;;;;9.70;52.67;99518.19;5078174;27;19945;-75
2021/01/12 16:32:54;;;;;;;;;;;;;;;9.72;52.98;99508.44;5071379;27;19939;-75
2021/01/12 18:05:14;;;;;;;;;;;;;;;8.77;51.50;99537.84;4854358;24;19937;-74
2021/01/12 18:08:02;;;;;;;;;;;;;;;8.74;51.49;99545.03;4746686;29;20464;-74
2021/01/12 18:10:33;;;;;;;;;;;;;;;8.68;51.40;99548.75;4755825;29;19945;-75
2021/01/12 18:13:01;;;;;;;;;;;;;;;8.67;51.70;99552.31;4744201;29;20418;-75
2021/01/12 18:15:28;;;;;;;;;;;;;;;8.62;52.14;99547.19;4758822;29;19937;-75
2021/01/12 18:18:06;;;;;;;;;;;;;;;8.60;52.03;99546.41;4761089;29;19941;-75
2021/01/12 18:20:35;;;;;;;;;;;;;;;8.55;51.92;99542.22;4751072;29;19937;-76
2021/01/12 18:23:02;;;;;;;;;;;;;;;8.53;51.86;99537.00;4755321;29;19990;-75
2021/01/12 18:25:39;;;;;;;;;;;;;;;8.49;52.50;99535.41;4748197;30;20732;-75
2021/01/12 18:28:09;;;;;;;;;;;;;;;8.47;52.33;99532.00;4746861;30;19937;-74
2021/01/12 18:30:36;;;;;;;;;;;;;;;8.45;52.58;99533.78;4767831;29;20002;-74
2021/01/12 18:33:09;;;;;;;;;;;;;;;8.40;52.46;99533.94;4755617;30;19938;-75
2021/01/12 18:35:39;;;;;;;;;;;;;;;8.37;52.36;99535.88;4747999;30;19943;-74
2021/01/12 18:38:12;;;;;;;;;;;;;;;8.36;52.17;99540.25;4758875;30;19944;-74
2021/01/12 18:40:45;;;;;;;;;;;;;;;8.35;53.00;99546.44;4761045;30;19972;-74
2021/01/12 18:43:33;;;;;;;;;;;;;;;8.29;52.84;99537.00;4767357;30;20430;-74
2021/01/12 18:46:01;;;;;;;;;;;;;;;8.27;52.45;99546.75;4748334;29;20391;-74
2021/01/12 18:48:31;;;;;;;;;;;;;;;8.24;52.73;99552.09;4750359;30;19953;-74
2021/01/12 18:50:59;;;;;;;;;;;;;;;8.20;53.17;99555.78;4751314;30;19976;-74
2021/01/12 18:53:26;;;;;;;;;;;;;;;8.20;53.03;99554.94;4747578;30;19929;-74
2021/01/12 18:55:55;;;;;;;;;;;;;;;8.19;52.93;99547.94;4753544;30;20353;-75
2021/01/12 18:58:22;;;;;;;;;;;;;;;8.15;53.06;99544.53;4760329;30;19933;-75
2021/01/12 19:01:16;;;;;;;;;;;;;;;8.09;53.24;99555.28;4757402;30;20276;-75
2021/01/12 19:03:43;;;;;;;;;;;;;;;8.09;53.27;99552.66;4763643;30;19930;-76
2021/01/12 19:06:14;;;;;;;;;;;;;;;8.06;53.44;99545.72;4739872;30;19981;-75
2021/01/12 19:08:41;;;;;;;;;;;;;;;8.05;53.21;99548.44;4742642;30;19933;-74
2021/01/12 19:11:13;;;;;;;;;;;;;;;8.02;53.41;99549.41;4744062;30;19934;-74
2021/01/12 19:13:40;;;;;;;;;;;;;;;8.00;53.29;99555.63;4739185;30;20038;-75
2021/01/12 19:16:10;;;;;;;;;;;;;;;7.98;53.72;99561.84;4755364;30;19941;-75
2021/01/12 19:18:37;;;;;;;;;;;;;;;7.95;53.23;99554.03;4763159;30;20396;-74
2021/01/12 19:21:07;;;;;;;;;;;;;;;7.95;53.33;99553.19;4759235;30;19933;-75
2021/01/12 19:23:37;;;;;;;;;;;;;;;7.90;53.93;99557.75;4754712;30;20296;-74
2021/01/12 19:26:05;;;;;;;;;;;;;;;7.93;53.56;99557.63;4764269;30;19933;-74
2021/01/12 19:28:32;;;;;;;;;;;;;;;7.87;53.75;99556.09;4765994;30;19933;-74
2021/01/12 19:30:59;;;;;;;;;;;;;;;7.86;53.86;99559.63;4751019;30;19934;-74
2021/01/12 19:33:34;;;;;;;;;;;;;;;7.82;53.75;99548.31;4754519;30;20044;-75
2021/01/12 19:36:02;;;;;;;;;;;;;;;7.79;53.92;99548.44;4761212;30;19968;-75
2021/01/12 19:38:29;;;;;;;;;;;;;;;7.77;53.98;99547.66;4739529;30;19933;-74
2021/01/12 19:40:58;;;;;;;;;;;;;;;7.76;54.17;99555.59;4764465;30;20006;-74
2021/01/12 19:43:26;;;;;;;;;;;;;;;7.75;54.18;99549.47;4764320;30;20037;-74
2021/01/12 19:45:54;;;;;;;;;;;;;;;7.74;54.26;99550.38;4762145;30;19964;-74
2021/01/12 19:48:26;;;;;;;;;;;;;;;7.74;53.93;99553.00;4771393;30;19944;-75
2021/01/12 19:50:53;;;;;;;;;;;;;;;7.70;54.16;99550.56;4754182;30;20417;-74
2021/01/12 19:53:22;;;;;;;;;;;;;;;7.69;54.43;99549.69;4763848;30;19938;-74
2021/01/12 19:55:50;;;;;;;;;;;;;;;7.90;53.90;99560.38;4763494;30;19945;-75
2021/01/12 19:58:18;;;;;;;;;;;;;;;8.05;53.39;99564.22;4764290;30;19938;-74
2021/01/12 20:00:45;;;;;;;;;;;;;;;8.14;53.37;99566.53;4769792;30;20032;-75
2021/01/12 20:03:12;;;;;;;;;;;;;;;8.20;53.04;99570.75;4748575;30;19934;-74
2021/01/12 20:05:39;;;;;;;;;;;;;;;8.41;51.35;99571.72;4759016;30;19942;-74
2021/01/12 20:08:07;;;;;;;;;;;;;;;8.51;49.91;99572.25;4765293;30;20461;-74
2021/01/12 20:10:34;;;;;;;;;;;;;;;8.61;49.39;99573.63;4762593;30;22390;-74
2021/01/12 20:13:11;;;;;;;;;;;;;;;8.73;48.37;99580.22;4761877;30;19929;-75
2021/01/12 20:15:40;;;;;;;;;;;;;;;8.76;47.54;99580.97;4763061;30;19940;-74
2021/01/12 20:18:08;;;;;;;;;;;;;;;8.82;46.71;99581.66;4737609;30;20038;-75
2021/01/12 20:20:36;;;;;;;;;;;;;;;8.87;45.56;99585.81;4748808;30;19938;-74
2021/01/12 20:23:05;;;;;;;;;;;;;;;8.91;45.55;99592.69;4745606;30;20372;-75
2021/01/12 20:25:34;;;;;;;;;;;;;;;8.95;45.26;99594.28;4742247;30;19934;-74
2021/01/12 20:28:04;;;;;;;;;;;;;;;9.03;44.87;99595.78;4748998;30;19940;-75
2021/01/12 20:30:31;;;;;;;;;;;;;;;8.99;44.27;99589.75;4749082;30;19930;-74
2021/01/12 20:33:03;;;;;;;;;;;;;;;8.92;44.77;99601.47;4749183;30;20063;-75
2021/01/12 20:35:31;;;;;;;;;;;;;;;8.84;46.45;99600.88;4749039;30;19934;-75
2021/01/12 20:37:58;;;;;;;;;;;;;;;8.82;46.07;99602.75;4748763;30;19933;-75
2021/01/12 20:40:31;;;;;;;;;;;;;;;8.80;46.72;99602.81;4745202;30;19934;-75
2021/01/12 20:43:01;;;;;;;;;;;;;;;8.80;47.31;99602.81;4741326;30;19940;-74
2021/01/12 20:45:34;;;;;;;;;;;;;;;8.79;47.80;99596.66;4739316;30;20000;-75
2021/01/12 20:52:09;;;;;;;;;;;;;;;8.79;48.48;99598.44;5233898;24;20662;-75
2021/01/12 20:54:37;;;;;;;;;;;;;;;8.79;48.90;99593.16;4749945;30;19934;-74
2021/01/12 20:57:04;;;;;;;;;;;;;;;8.78;49.02;99591.44;4744827;30;19938;-75
2021/01/12 20:59:31;;;;;;;;;;;;;;;8.77;48.91;99589.72;4750622;30;20076;-75
2021/01/12 21:01:58;;;;;;;;;;;;;;;8.75;49.37;99584.50;4746527;30;19948;-74
2021/01/12 21:04:25;;;;;;;;;;;;;;;8.72;49.44;99597.81;4750172;30;20064;-75
2021/01/12 21:06:53;;;;;;;;;;;;;;;8.74;48.92;99598.59;4745410;30;20023;-75
2021/01/12 21:09:21;;;;;;;;;;;;;;;8.69;49.66;99594.44;4759435;29;19941;-76